sensor_id;sensor_type;location;lat;lon;timestamp;P1;durP1;ratioP1;P2;durP2;ratioP2
63276;SDS011;49403;51.046;13.780;2022-12-10T00:00:01;39.38;;;17.33;;
63276;SDS011;49403;51.046;13.780;2022-12-10T00:00:33;42.78;;;18.20;;
63276;SDS011;49403;51.046;13.780;2022-12-10T00:01:05;45.55;;;17.67;;
63276;SDS011;49403;51.046;13.780;2022-12-10T00:01:41;41.80;;;18.38;;
63276;SDS011;49403;51.046;13.780;2022-12-10T00:02:13;38.17;;;17.70;;
63276;SDS011;49403;51.046;13.780;2022-12-10T00:02:44;39.88;;;17.55;;
63276;SDS011;49403;51.046;13.780;2022-12-10T00:03:14;38.15;;;16.65;;
63276;SDS011;49403;51.046;13.780;2022-12-10T00:03:45;42.08;;;17.73;;
63276;SDS011;49403;51.046;13.780;2022-12-10T00:04:17;38.30;;;17.55;;
63276;SDS011;49403;51.046;13.780;2022-12-10T00:04:48;40.58;;;18.20;;
63276;SDS011;49403;51.046;13.780;2022-12-10T00:05:19;38.63;;;17.63;;
63276;SDS011;49403;51.046;13.780;2022-12-10T00:05:49;37.35;;;17.20;;
63276;SDS011;49403;51.046;13.780;2022-12-10T00:06:25;40.78;;;18.30;;
63276;SDS011;49403;51.046;13.780;2022-12-10T00:06:58;41.67;;;18.23;;
63276;SDS011;49403;51.046;13.780;2022-12-10T00:07:29;41.40;;;18.27;;
63276;SDS011;49403;51.046;13.780;2022-12-10T00:07:59;40.13;;;17.92;;
63276;SDS011;49403;51.046;13.780;2022-12-10T00:08:30;39.78;;;17.42;;
63276;SDS011;49403;51.046;13.780;2022-12-10T00:09:02;42.92;;;17.48;;
63276;SDS011;49403;51.046;13.780;2022-12-10T00:09:34;41.78;;;17.98;;
63276;SDS011;49403;51.046;13.780;2022-12-10T00:10:05;42.55;;;17.80;;
63276;SDS011;49403;51.046;13.780;2022-12-10T00:10:39;41.65;;;18.25;;
63276;SDS011;49403;51.046;13.780;2022-12-10T00:11:11;39.97;;;17.58;;
63276;SDS011;49403;51.046;13.780;2022-12-10T00:11:43;42.28;;;18.77;;
63276;SDS011;49403;51.046;13.780;2022-12-10T00:12:14;41.30;;;18.60;;
63276;SDS011;49403;51.046;13.780;2022-12-10T00:12:45;39.00;;;17.45;;
63276;SDS011;49403;51.046;13.780;2022-12-10T00:13:16;39.60;;;17.90;;
63276;SDS011;49403;51.046;13.780;2022-12-10T00:13:47;41.17;;;17.90;;
63276;SDS011;49403;51.046;13.780;2022-12-10T00:14:19;41.67;;;18.55;;
63276;SDS011;49403;51.046;13.780;2022-12-10T00:14:49;41.17;;;17.60;;
63276;SDS011;49403;51.046;13.780;2022-12-10T00:15:20;43.65;;;18.33;;
63276;SDS011;49403;51.046;13.780;2022-12-10T00:15:51;39.58;;;17.38;;
63276;SDS011;49403;51.046;13.780;2022-12-10T00:16:23;43.53;;;18.70;;
63276;SDS011;49403;51.046;13.780;2022-12-10T00:16:55;43.00;;;18.77;;
63276;SDS011;49403;51.046;13.780;2022-12-10T00:17:26;38.40;;;17.70;;
63276;SDS011;49403;51.046;13.780;2022-12-10T00:17:57;41.88;;;18.17;;
63276;SDS011;49403;51.046;13.780;2022-12-10T00:18:27;44.75;;;18.77;;
63276;SDS011;49403;51.046;13.780;2022-12-10T00:18:59;43.85;;;19.15;;
63276;SDS011;49403;51.046;13.780;2022-12-10T00:19:30;40.28;;;17.80;;
63276;SDS011;49403;51.046;13.780;2022-12-10T00:20:00;43.58;;;17.92;;
63276;SDS011;49403;51.046;13.780;2022-12-10T00:20:31;43.63;;;18.30;;
63276;SDS011;49403;51.046;13.780;2022-12-10T00:21:03;40.88;;;18.40;;
63276;SDS011;49403;51.046;13.780;2022-12-10T00:21:35;41.28;;;18.55;;
63276;SDS011;49403;51.046;13.780;2022-12-10T00:22:06;46.60;;;18.95;;
63276;SDS011;49403;51.046;13.780;2022-12-10T00:22:37;38.83;;;17.98;;
63276;SDS011;49403;51.046;13.780;2022-12-10T00:23:08;42.50;;;18.60;;
63276;SDS011;49403;51.046;13.780;2022-12-10T00:23:39;36.03;;;18.08;;
63276;SDS011;49403;51.046;13.780;2022-12-10T00:24:10;43.03;;;18.88;;
63276;SDS011;49403;51.046;13.780;2022-12-10T00:24:41;44.75;;;17.58;;
63276;SDS011;49403;51.046;13.780;2022-12-10T00:25:12;41.53;;;18.20;;
63276;SDS011;49403;51.046;13.780;2022-12-10T00:25:43;38.80;;;18.13;;
63276;SDS011;49403;51.046;13.780;2022-12-10T00:26:15;38.17;;;17.25;;
63276;SDS011;49403;51.046;13.780;2022-12-10T00:26:49;42.72;;;17.38;;
63276;SDS011;49403;51.046;13.780;2022-12-10T00:27:20;43.55;;;17.92;;
63276;SDS011;49403;51.046;13.780;2022-12-10T00:27:51;40.28;;;17.77;;
63276;SDS011;49403;51.046;13.780;2022-12-10T00:28:22;42.17;;;18.00;;
63276;SDS011;49403;51.046;13.780;2022-12-10T00:28:53;42.35;;;18.17;;
63276;SDS011;49403;51.046;13.780;2022-12-10T00:29:25;42.35;;;18.55;;
63276;SDS011;49403;51.046;13.780;2022-12-10T00:29:56;42.42;;;18.42;;
63276;SDS011;49403;51.046;13.780;2022-12-10T00:30:27;46.75;;;18.33;;
63276;SDS011;49403;51.046;13.780;2022-12-10T00:31:56;37.22;;;16.77;;
63276;SDS011;49403;51.046;13.780;2022-12-10T00:32:27;45.40;;;18.23;;
63276;SDS011;49403;51.046;13.780;2022-12-10T00:32:58;40.88;;;18.13;;
63276;SDS011;49403;51.046;13.780;2022-12-10T00:33:29;41.97;;;18.25;;
63276;SDS011;49403;51.046;13.780;2022-12-10T00:34:00;42.58;;;18.60;;
63276;SDS011;49403;51.046;13.780;2022-12-10T00:34:33;41.88;;;18.13;;
63276;SDS011;49403;51.046;13.780;2022-12-10T00:35:03;40.83;;;17.73;;
63276;SDS011;49403;51.046;13.780;2022-12-10T00:35:35;42.50;;;18.58;;
63276;SDS011;49403;51.046;13.780;2022-12-10T00:36:07;40.75;;;18.55;;
63276;SDS011;49403;51.046;13.780;2022-12-10T00:36:42;40.33;;;17.77;;
63276;SDS011;49403;51.046;13.780;2022-12-10T00:37:15;40.35;;;17.95;;
63276;SDS011;49403;51.046;13.780;2022-12-10T00:37:46;44.15;;;18.38;;
63276;SDS011;49403;51.046;13.780;2022-12-10T00:38:16;42.70;;;18.55;;
63276;SDS011;49403;51.046;13.780;2022-12-10T00:38:48;47.83;;;18.80;;
63276;SDS011;49403;51.046;13.780;2022-12-10T00:39:19;41.45;;;18.27;;
63276;SDS011;49403;51.046;13.780;2022-12-10T00:39:50;42.15;;;18.10;;
63276;SDS011;49403;51.046;13.780;2022-12-10T00:40:21;45.13;;;17.77;;
63276;SDS011;49403;51.046;13.780;2022-12-10T00:40:52;42.85;;;18.33;;
63276;SDS011;49403;51.046;13.780;2022-12-10T00:41:23;42.15;;;18.45;;
63276;SDS011;49403;51.046;13.780;2022-12-10T00:41:54;38.78;;;18.05;;
63276;SDS011;49403;51.046;13.780;2022-12-10T00:42:25;42.95;;;18.20;;
63276;SDS011;49403;51.046;13.780;2022-12-10T00:42:56;40.13;;;17.90;;
63276;SDS011;49403;51.046;13.780;2022-12-10T00:43:26;41.08;;;17.73;;
63276;SDS011;49403;51.046;13.780;2022-12-10T00:43:57;41.63;;;17.83;;
63276;SDS011;49403;51.046;13.780;2022-12-10T00:44:28;36.05;;;17.15;;
63276;SDS011;49403;51.046;13.780;2022-12-10T00:44:59;43.38;;;18.65;;
63276;SDS011;49403;51.046;13.780;2022-12-10T00:45:30;42.05;;;18.02;;
63276;SDS011;49403;51.046;13.780;2022-12-10T00:46:01;40.38;;;18.42;;
63276;SDS011;49403;51.046;13.780;2022-12-10T00:46:32;44.00;;;18.13;;
63276;SDS011;49403;51.046;13.780;2022-12-10T00:47:03;42.75;;;18.20;;
63276;SDS011;49403;51.046;13.780;2022-12-10T00:47:34;42.13;;;18.60;;
63276;SDS011;49403;51.046;13.780;2022-12-10T00:48:04;41.47;;;18.45;;
63276;SDS011;49403;51.046;13.780;2022-12-10T00:48:35;42.55;;;18.80;;
63276;SDS011;49403;51.046;13.780;2022-12-10T00:49:06;41.22;;;17.88;;
63276;SDS011;49403;51.046;13.780;2022-12-10T00:49:37;42.08;;;17.85;;
63276;SDS011;49403;51.046;13.780;2022-12-10T00:50:08;42.63;;;18.52;;
63276;SDS011;49403;51.046;13.780;2022-12-10T00:50:38;41.08;;;17.88;;
63276;SDS011;49403;51.046;13.780;2022-12-10T00:51:11;40.15;;;17.58;;
63276;SDS011;49403;51.046;13.780;2022-12-10T00:51:52;38.55;;;17.83;;
63276;SDS011;49403;51.046;13.780;2022-12-10T00:52:22;44.67;;;18.52;;
63276;SDS011;49403;51.046;13.780;2022-12-10T00:52:53;42.65;;;17.90;;
63276;SDS011;49403;51.046;13.780;2022-12-10T00:53:24;46.88;;;18.75;;
63276;SDS011;49403;51.046;13.780;2022-12-10T00:53:57;46.22;;;18.65;;
63276;SDS011;49403;51.046;13.780;2022-12-10T00:54:28;42.42;;;18.33;;
63276;SDS011;49403;51.046;13.780;2022-12-10T00:54:59;43.15;;;17.52;;
63276;SDS011;49403;51.046;13.780;2022-12-10T00:55:30;44.33;;;18.38;;
63276;SDS011;49403;51.046;13.780;2022-12-10T00:56:01;43.85;;;18.85;;
63276;SDS011;49403;51.046;13.780;2022-12-10T00:56:33;44.17;;;18.40;;
63276;SDS011;49403;51.046;13.780;2022-12-10T00:57:04;40.17;;;17.85;;
63276;SDS011;49403;51.046;13.780;2022-12-10T00:57:35;42.10;;;18.45;;
63276;SDS011;49403;51.046;13.780;2022-12-10T00:58:06;43.38;;;18.42;;
63276;SDS011;49403;51.046;13.780;2022-12-10T00:58:37;40.22;;;17.95;;
63276;SDS011;49403;51.046;13.780;2022-12-10T00:59:08;38.78;;;18.08;;
63276;SDS011;49403;51.046;13.780;2022-12-10T00:59:39;41.28;;;17.73;;
63276;SDS011;49403;51.046;13.780;2022-12-10T01:00:10;43.38;;;17.80;;
63276;SDS011;49403;51.046;13.780;2022-12-10T01:00:41;42.15;;;17.90;;
63276;SDS011;49403;51.046;13.780;2022-12-10T01:01:15;42.35;;;18.55;;
63276;SDS011;49403;51.046;13.780;2022-12-10T01:01:53;43.72;;;17.50;;
63276;SDS011;49403;51.046;13.780;2022-12-10T01:02:24;41.15;;;16.92;;
63276;SDS011;49403;51.046;13.780;2022-12-10T01:02:55;41.05;;;17.25;;
63276;SDS011;49403;51.046;13.780;2022-12-10T01:03:26;58.63;;;19.23;;
63276;SDS011;49403;51.046;13.780;2022-12-10T01:03:58;38.03;;;17.02;;
63276;SDS011;49403;51.046;13.780;2022-12-10T01:04:30;40.58;;;17.02;;
63276;SDS011;49403;51.046;13.780;2022-12-10T01:05:01;42.97;;;18.33;;
63276;SDS011;49403;51.046;13.780;2022-12-10T01:05:32;40.97;;;18.02;;
63276;SDS011;49403;51.046;13.780;2022-12-10T01:06:56;40.03;;;17.17;;
63276;SDS011;49403;51.046;13.780;2022-12-10T01:07:29;41.95;;;17.08;;
63276;SDS011;49403;51.046;13.780;2022-12-10T01:08:00;44.40;;;18.83;;
63276;SDS011;49403;51.046;13.780;2022-12-10T01:08:30;41.78;;;17.65;;
63276;SDS011;49403;51.046;13.780;2022-12-10T01:09:04;42.92;;;17.85;;
63276;SDS011;49403;51.046;13.780;2022-12-10T01:09:36;38.92;;;17.35;;
63276;SDS011;49403;51.046;13.780;2022-12-10T01:10:07;41.15;;;17.92;;
63276;SDS011;49403;51.046;13.780;2022-12-10T01:10:38;41.85;;;17.60;;
63276;SDS011;49403;51.046;13.780;2022-12-10T01:11:09;37.03;;;16.33;;
63276;SDS011;49403;51.046;13.780;2022-12-10T01:11:44;40.53;;;17.52;;
63276;SDS011;49403;51.046;13.780;2022-12-10T01:12:16;41.60;;;17.35;;
63276;SDS011;49403;51.046;13.780;2022-12-10T01:12:47;41.85;;;17.63;;
63276;SDS011;49403;51.046;13.780;2022-12-10T01:13:18;42.95;;;17.35;;
63276;SDS011;49403;51.046;13.780;2022-12-10T01:13:48;41.47;;;16.88;;
63276;SDS011;49403;51.046;13.780;2022-12-10T01:14:21;42.70;;;17.25;;
63276;SDS011;49403;51.046;13.780;2022-12-10T01:14:57;40.17;;;16.65;;
63276;SDS011;49403;51.046;13.780;2022-12-10T01:15:28;46.53;;;17.52;;
63276;SDS011;49403;51.046;13.780;2022-12-10T01:16:03;39.90;;;17.17;;
63276;SDS011;49403;51.046;13.780;2022-12-10T01:16:35;38.28;;;17.23;;
63276;SDS011;49403;51.046;13.780;2022-12-10T01:17:06;40.60;;;18.00;;
63276;SDS011;49403;51.046;13.780;2022-12-10T01:17:37;39.17;;;16.70;;
63276;SDS011;49403;51.046;13.780;2022-12-10T01:18:08;44.13;;;16.95;;
63276;SDS011;49403;51.046;13.780;2022-12-10T01:18:39;41.95;;;18.77;;
63276;SDS011;49403;51.046;13.780;2022-12-10T01:19:10;42.92;;;18.13;;
63276;SDS011;49403;51.046;13.780;2022-12-10T01:19:41;44.42;;;17.92;;
63276;SDS011;49403;51.046;13.780;2022-12-10T01:20:12;44.13;;;18.52;;
63276;SDS011;49403;51.046;13.780;2022-12-10T01:20:43;41.42;;;17.92;;
63276;SDS011;49403;51.046;13.780;2022-12-10T01:21:15;40.80;;;17.70;;
63276;SDS011;49403;51.046;13.780;2022-12-10T01:21:51;40.75;;;18.05;;
63276;SDS011;49403;51.046;13.780;2022-12-10T01:22:22;39.08;;;16.77;;
63276;SDS011;49403;51.046;13.780;2022-12-10T01:22:53;42.13;;;17.15;;
63276;SDS011;49403;51.046;13.780;2022-12-10T01:23:24;38.15;;;17.08;;
63276;SDS011;49403;51.046;13.780;2022-12-10T01:23:55;42.38;;;17.42;;
63276;SDS011;49403;51.046;13.780;2022-12-10T01:24:28;40.97;;;17.25;;
63276;SDS011;49403;51.046;13.780;2022-12-10T01:24:59;43.25;;;17.88;;
63276;SDS011;49403;51.046;13.780;2022-12-10T01:25:30;39.35;;;17.10;;
63276;SDS011;49403;51.046;13.780;2022-12-10T01:26:02;39.88;;;17.02;;
63276;SDS011;49403;51.046;13.780;2022-12-10T01:26:34;38.17;;;17.73;;
63276;SDS011;49403;51.046;13.780;2022-12-10T01:27:05;38.13;;;17.13;;
63276;SDS011;49403;51.046;13.780;2022-12-10T01:27:36;45.75;;;17.35;;
63276;SDS011;49403;51.046;13.780;2022-12-10T01:28:07;36.88;;;17.30;;
63276;SDS011;49403;51.046;13.780;2022-12-10T01:28:38;41.33;;;16.98;;
63276;SDS011;49403;51.046;13.780;2022-12-10T01:29:10;39.40;;;17.15;;
63276;SDS011;49403;51.046;13.780;2022-12-10T01:29:41;40.10;;;17.42;;
63276;SDS011;49403;51.046;13.780;2022-12-10T01:30:12;40.08;;;17.20;;
63276;SDS011;49403;51.046;13.780;2022-12-10T01:30:43;36.55;;;16.00;;
63276;SDS011;49403;51.046;13.780;2022-12-10T01:31:15;39.38;;;16.55;;
63276;SDS011;49403;51.046;13.780;2022-12-10T01:31:54;38.60;;;16.38;;
63276;SDS011;49403;51.046;13.780;2022-12-10T01:32:25;38.28;;;16.25;;
63276;SDS011;49403;51.046;13.780;2022-12-10T01:32:56;39.17;;;16.85;;
63276;SDS011;49403;51.046;13.780;2022-12-10T01:33:27;41.63;;;17.33;;
63276;SDS011;49403;51.046;13.780;2022-12-10T01:33:58;36.78;;;16.45;;
63276;SDS011;49403;51.046;13.780;2022-12-10T01:34:29;41.50;;;16.65;;
63276;SDS011;49403;51.046;13.780;2022-12-10T01:35:00;36.67;;;16.20;;
63276;SDS011;49403;51.046;13.780;2022-12-10T01:35:31;36.42;;;16.00;;
63276;SDS011;49403;51.046;13.780;2022-12-10T01:36:08;39.40;;;16.27;;
63276;SDS011;49403;51.046;13.780;2022-12-10T01:36:44;45.60;;;17.33;;
63276;SDS011;49403;51.046;13.780;2022-12-10T01:37:15;39.30;;;16.25;;
63276;SDS011;49403;51.046;13.780;2022-12-10T01:37:46;40.47;;;16.13;;
63276;SDS011;49403;51.046;13.780;2022-12-10T01:38:17;42.75;;;17.33;;
63276;SDS011;49403;51.046;13.780;2022-12-10T01:38:48;40.83;;;16.58;;
63276;SDS011;49403;51.046;13.780;2022-12-10T01:39:19;37.10;;;16.25;;
63276;SDS011;49403;51.046;13.780;2022-12-10T01:39:51;40.28;;;16.55;;
63276;SDS011;49403;51.046;13.780;2022-12-10T01:40:22;42.17;;;17.17;;
63276;SDS011;49403;51.046;13.780;2022-12-10T01:40:53;40.97;;;16.95;;
63276;SDS011;49403;51.046;13.780;2022-12-10T01:41:28;39.53;;;17.10;;
63276;SDS011;49403;51.046;13.780;2022-12-10T01:42:03;37.42;;;16.05;;
63276;SDS011;49403;51.046;13.780;2022-12-10T01:42:34;41.50;;;16.30;;
63276;SDS011;49403;51.046;13.780;2022-12-10T01:43:04;35.78;;;15.40;;
63276;SDS011;49403;51.046;13.780;2022-12-10T01:44:58;36.05;;;15.63;;
63276;SDS011;49403;51.046;13.780;2022-12-10T01:45:31;34.97;;;15.30;;
63276;SDS011;49403;51.046;13.780;2022-12-10T01:46:02;34.08;;;15.40;;
63276;SDS011;49403;51.046;13.780;2022-12-10T01:46:34;37.70;;;15.85;;
63276;SDS011;49403;51.046;13.780;2022-12-10T01:47:12;34.97;;;15.57;;
63276;SDS011;49403;51.046;13.780;2022-12-10T01:47:42;37.03;;;15.13;;
63276;SDS011;49403;51.046;13.780;2022-12-10T01:48:13;32.75;;;14.90;;
63276;SDS011;49403;51.046;13.780;2022-12-10T01:48:44;38.88;;;15.48;;
63276;SDS011;49403;51.046;13.780;2022-12-10T01:49:18;34.97;;;14.85;;
63276;SDS011;49403;51.046;13.780;2022-12-10T01:49:53;37.28;;;15.18;;
63276;SDS011;49403;51.046;13.780;2022-12-10T01:50:24;38.30;;;16.00;;
63276;SDS011;49403;51.046;13.780;2022-12-10T01:50:55;36.25;;;15.70;;
63276;SDS011;49403;51.046;13.780;2022-12-10T01:51:28;35.10;;;14.50;;
63276;SDS011;49403;51.046;13.780;2022-12-10T01:52:00;36.65;;;15.55;;
63276;SDS011;49403;51.046;13.780;2022-12-10T01:52:32;35.15;;;15.57;;
63276;SDS011;49403;51.046;13.780;2022-12-10T01:53:03;35.03;;;15.20;;
63276;SDS011;49403;51.046;13.780;2022-12-10T01:53:34;34.28;;;15.27;;
63276;SDS011;49403;51.046;13.780;2022-12-10T01:54:12;37.83;;;15.55;;
63276;SDS011;49403;51.046;13.780;2022-12-10T01:54:45;42.63;;;16.73;;
63276;SDS011;49403;51.046;13.780;2022-12-10T01:56:09;37.75;;;14.93;;
63276;SDS011;49403;51.046;13.780;2022-12-10T01:56:41;39.65;;;15.77;;
63276;SDS011;49403;51.046;13.780;2022-12-10T01:57:16;33.38;;;14.68;;
63276;SDS011;49403;51.046;13.780;2022-12-10T01:57:51;34.30;;;15.30;;
63276;SDS011;49403;51.046;13.780;2022-12-10T01:58:22;38.47;;;15.93;;
63276;SDS011;49403;51.046;13.780;2022-12-10T01:58:54;36.80;;;16.08;;
63276;SDS011;49403;51.046;13.780;2022-12-10T01:59:26;38.53;;;15.55;;
63276;SDS011;49403;51.046;13.780;2022-12-10T01:59:59;34.33;;;15.40;;
63276;SDS011;49403;51.046;13.780;2022-12-10T02:00:34;38.22;;;15.65;;
63276;SDS011;49403;51.046;13.780;2022-12-10T02:01:18;34.38;;;16.02;;
63276;SDS011;49403;51.046;13.780;2022-12-10T02:03:14;39.75;;;15.85;;
63276;SDS011;49403;51.046;13.780;2022-12-10T02:03:52;34.63;;;14.60;;
63276;SDS011;49403;51.046;13.780;2022-12-10T02:06:17;35.58;;;14.57;;
63276;SDS011;49403;51.046;13.780;2022-12-10T02:08:59;35.55;;;13.13;;
63276;SDS011;49403;51.046;13.780;2022-12-10T02:09:35;37.95;;;12.82;;
63276;SDS011;49403;51.046;13.780;2022-12-10T02:10:09;33.97;;;12.88;;
63276;SDS011;49403;51.046;13.780;2022-12-10T02:12:15;35.20;;;13.75;;
63276;SDS011;49403;51.046;13.780;2022-12-10T02:13:53;31.48;;;12.98;;
63276;SDS011;49403;51.046;13.780;2022-12-10T02:14:51;32.05;;;13.63;;
63276;SDS011;49403;51.046;13.780;2022-12-10T02:15:25;33.50;;;13.60;;
63276;SDS011;49403;51.046;13.780;2022-12-10T02:16:36;35.55;;;14.95;;
63276;SDS011;49403;51.046;13.780;2022-12-10T02:17:14;31.60;;;14.23;;
63276;SDS011;49403;51.046;13.780;2022-12-10T02:17:57;34.40;;;13.57;;
63276;SDS011;49403;51.046;13.780;2022-12-10T02:18:37;34.45;;;13.52;;
63276;SDS011;49403;51.046;13.780;2022-12-10T02:20:00;33.25;;;13.70;;
63276;SDS011;49403;51.046;13.780;2022-12-10T02:20:41;32.53;;;14.32;;
63276;SDS011;49403;51.046;13.780;2022-12-10T02:21:21;33.10;;;14.23;;
63276;SDS011;49403;51.046;13.780;2022-12-10T02:21:58;33.05;;;13.95;;
63276;SDS011;49403;51.046;13.780;2022-12-10T02:22:33;32.40;;;13.68;;
63276;SDS011;49403;51.046;13.780;2022-12-10T02:23:45;36.47;;;14.07;;
63276;SDS011;49403;51.046;13.780;2022-12-10T02:24:13;34.63;;;13.88;;
63276;SDS011;49403;51.046;13.780;2022-12-10T02:24:50;34.78;;;14.10;;
63276;SDS011;49403;51.046;13.780;2022-12-10T02:25:25;38.72;;;14.15;;
63276;SDS011;49403;51.046;13.780;2022-12-10T02:27:57;31.55;;;13.85;;
63276;SDS011;49403;51.046;13.780;2022-12-10T02:29:43;32.67;;;13.23;;
63276;SDS011;49403;51.046;13.780;2022-12-10T02:30:16;35.67;;;14.43;;
63276;SDS011;49403;51.046;13.780;2022-12-10T02:30:48;32.55;;;14.25;;
63276;SDS011;49403;51.046;13.780;2022-12-10T02:31:23;33.08;;;14.00;;
63276;SDS011;49403;51.046;13.780;2022-12-10T02:32:04;34.38;;;14.20;;
63276;SDS011;49403;51.046;13.780;2022-12-10T02:32:39;34.55;;;13.98;;
63276;SDS011;49403;51.046;13.780;2022-12-10T02:33:12;31.77;;;13.57;;
63276;SDS011;49403;51.046;13.780;2022-12-10T02:33:46;32.15;;;14.13;;
63276;SDS011;49403;51.046;13.780;2022-12-10T02:34:20;35.45;;;14.80;;
63276;SDS011;49403;51.046;13.780;2022-12-10T02:34:54;34.10;;;13.77;;
63276;SDS011;49403;51.046;13.780;2022-12-10T02:35:28;35.17;;;14.82;;
63276;SDS011;49403;51.046;13.780;2022-12-10T02:36:03;37.17;;;14.88;;
63276;SDS011;49403;51.046;13.780;2022-12-10T02:36:35;32.85;;;14.27;;
63276;SDS011;49403;51.046;13.780;2022-12-10T02:37:11;31.83;;;14.32;;
63276;SDS011;49403;51.046;13.780;2022-12-10T02:37:51;33.65;;;13.82;;
63276;SDS011;49403;51.046;13.780;2022-12-10T02:38:27;30.55;;;13.80;;
63276;SDS011;49403;51.046;13.780;2022-12-10T02:39:01;32.25;;;14.10;;
63276;SDS011;49403;51.046;13.780;2022-12-10T02:39:36;32.45;;;13.40;;
63276;SDS011;49403;51.046;13.780;2022-12-10T02:40:17;33.78;;;14.35;;
63276;SDS011;49403;51.046;13.780;2022-12-10T02:40:53;31.58;;;14.05;;
63276;SDS011;49403;51.046;13.780;2022-12-10T02:41:34;32.65;;;14.20;;
63276;SDS011;49403;51.046;13.780;2022-12-10T02:42:07;36.00;;;14.23;;
63276;SDS011;49403;51.046;13.780;2022-12-10T02:42:41;33.63;;;13.95;;
63276;SDS011;49403;51.046;13.780;2022-12-10T02:43:16;33.25;;;13.35;;
63276;SDS011;49403;51.046;13.780;2022-12-10T02:43:49;34.83;;;14.43;;
63276;SDS011;49403;51.046;13.780;2022-12-10T02:44:22;29.58;;;13.88;;
63276;SDS011;49403;51.046;13.780;2022-12-10T02:44:56;31.15;;;14.07;;
63276;SDS011;49403;51.046;13.780;2022-12-10T02:45:28;32.38;;;14.85;;
63276;SDS011;49403;51.046;13.780;2022-12-10T02:46:02;35.00;;;14.07;;
63276;SDS011;49403;51.046;13.780;2022-12-10T02:46:34;34.17;;;13.68;;
63276;SDS011;49403;51.046;13.780;2022-12-10T02:47:08;32.45;;;14.15;;
63276;SDS011;49403;51.046;13.780;2022-12-10T02:47:40;29.77;;;13.48;;
63276;SDS011;49403;51.046;13.780;2022-12-10T02:48:12;30.95;;;13.80;;
63276;SDS011;49403;51.046;13.780;2022-12-10T02:48:45;35.10;;;14.90;;
63276;SDS011;49403;51.046;13.780;2022-12-10T02:49:18;31.33;;;14.50;;
63276;SDS011;49403;51.046;13.780;2022-12-10T02:49:50;32.25;;;13.48;;
63276;SDS011;49403;51.046;13.780;2022-12-10T02:50:25;28.95;;;13.48;;
63276;SDS011;49403;51.046;13.780;2022-12-10T02:50:56;35.42;;;14.77;;
63276;SDS011;49403;51.046;13.780;2022-12-10T02:51:27;32.20;;;14.57;;
63276;SDS011;49403;51.046;13.780;2022-12-10T02:51:59;32.92;;;14.55;;
63276;SDS011;49403;51.046;13.780;2022-12-10T02:52:36;32.78;;;13.68;;
63276;SDS011;49403;51.046;13.780;2022-12-10T02:53:06;30.35;;;14.20;;
63276;SDS011;49403;51.046;13.780;2022-12-10T02:53:41;32.63;;;13.98;;
63276;SDS011;49403;51.046;13.780;2022-12-10T02:55:12;31.20;;;13.60;;
63276;SDS011;49403;51.046;13.780;2022-12-10T02:56:52;36.28;;;14.02;;
63276;SDS011;49403;51.046;13.780;2022-12-10T02:57:33;34.28;;;13.85;;
63276;SDS011;49403;51.046;13.780;2022-12-10T02:59:09;29.15;;;12.95;;
63276;SDS011;49403;51.046;13.780;2022-12-10T03:00:32;31.83;;;13.30;;
63276;SDS011;49403;51.046;13.780;2022-12-10T03:01:13;30.92;;;13.88;;
63276;SDS011;49403;51.046;13.780;2022-12-10T03:02:10;33.97;;;12.65;;
63276;SDS011;49403;51.046;13.780;2022-12-10T03:02:49;33.00;;;13.25;;
63276;SDS011;49403;51.046;13.780;2022-12-10T03:03:56;28.98;;;12.65;;
63276;SDS011;49403;51.046;13.780;2022-12-10T03:04:33;29.95;;;12.93;;
63276;SDS011;49403;51.046;13.780;2022-12-10T03:06:32;33.17;;;13.20;;
63276;SDS011;49403;51.046;13.780;2022-12-10T03:07:10;29.77;;;12.65;;
63276;SDS011;49403;51.046;13.780;2022-12-10T03:08:46;33.38;;;13.48;;
63276;SDS011;49403;51.046;13.780;2022-12-10T03:09:22;32.42;;;13.38;;
63276;SDS011;49403;51.046;13.780;2022-12-10T03:10:00;32.42;;;13.85;;
63276;SDS011;49403;51.046;13.780;2022-12-10T03:11:29;28.95;;;13.18;;
63276;SDS011;49403;51.046;13.780;2022-12-10T03:12:02;31.27;;;13.05;;
63276;SDS011;49403;51.046;13.780;2022-12-10T03:12:41;29.60;;;13.60;;
63276;SDS011;49403;51.046;13.780;2022-12-10T03:13:18;31.20;;;12.32;;
63276;SDS011;49403;51.046;13.780;2022-12-10T03:14:00;29.80;;;13.02;;
63276;SDS011;49403;51.046;13.780;2022-12-10T03:14:35;26.10;;;11.85;;
63276;SDS011;49403;51.046;13.780;2022-12-10T03:15:08;29.42;;;12.73;;
63276;SDS011;49403;51.046;13.780;2022-12-10T03:15:41;27.08;;;12.93;;
63276;SDS011;49403;51.046;13.780;2022-12-10T03:16:13;28.77;;;13.40;;
63276;SDS011;49403;51.046;13.780;2022-12-10T03:16:56;35.17;;;13.35;;
63276;SDS011;49403;51.046;13.780;2022-12-10T03:17:28;27.65;;;13.40;;
63276;SDS011;49403;51.046;13.780;2022-12-10T03:18:02;30.05;;;13.23;;
63276;SDS011;49403;51.046;13.780;2022-12-10T03:18:35;33.17;;;12.82;;
63276;SDS011;49403;51.046;13.780;2022-12-10T03:19:11;30.58;;;13.20;;
63276;SDS011;49403;51.046;13.780;2022-12-10T03:19:47;32.67;;;13.57;;
63276;SDS011;49403;51.046;13.780;2022-12-10T03:20:20;31.80;;;13.25;;
63276;SDS011;49403;51.046;13.780;2022-12-10T03:20:53;30.45;;;14.02;;
63276;SDS011;49403;51.046;13.780;2022-12-10T03:21:28;29.25;;;12.60;;
63276;SDS011;49403;51.046;13.780;2022-12-10T03:22:04;29.05;;;13.10;;
63276;SDS011;49403;51.046;13.780;2022-12-10T03:22:37;29.65;;;13.80;;
63276;SDS011;49403;51.046;13.780;2022-12-10T03:23:14;29.88;;;13.57;;
63276;SDS011;49403;51.046;13.780;2022-12-10T03:23:47;31.52;;;13.70;;
63276;SDS011;49403;51.046;13.780;2022-12-10T03:24:20;31.73;;;13.98;;
63276;SDS011;49403;51.046;13.780;2022-12-10T03:24:52;29.95;;;12.82;;
63276;SDS011;49403;51.046;13.780;2022-12-10T03:25:24;31.42;;;13.90;;
63276;SDS011;49403;51.046;13.780;2022-12-10T03:25:56;33.33;;;13.50;;
63276;SDS011;49403;51.046;13.780;2022-12-10T03:26:28;29.25;;;13.50;;
63276;SDS011;49403;51.046;13.780;2022-12-10T03:26:59;27.52;;;12.77;;
63276;SDS011;49403;51.046;13.780;2022-12-10T03:27:31;32.13;;;14.05;;
63276;SDS011;49403;51.046;13.780;2022-12-10T03:28:03;29.02;;;13.32;;
63276;SDS011;49403;51.046;13.780;2022-12-10T03:28:37;29.83;;;13.82;;
63276;SDS011;49403;51.046;13.780;2022-12-10T03:29:15;29.08;;;13.65;;
63276;SDS011;49403;51.046;13.780;2022-12-10T03:29:53;29.90;;;13.52;;
63276;SDS011;49403;51.046;13.780;2022-12-10T03:30:26;30.08;;;12.68;;
63276;SDS011;49403;51.046;13.780;2022-12-10T03:30:59;26.95;;;12.95;;
63276;SDS011;49403;51.046;13.780;2022-12-10T03:31:30;29.65;;;13.13;;
63276;SDS011;49403;51.046;13.780;2022-12-10T03:32:04;31.70;;;13.13;;
63276;SDS011;49403;51.046;13.780;2022-12-10T03:32:35;25.13;;;12.82;;
63276;SDS011;49403;51.046;13.780;2022-12-10T03:33:06;29.42;;;12.98;;
63276;SDS011;49403;51.046;13.780;2022-12-10T03:33:38;31.25;;;13.50;;
63276;SDS011;49403;51.046;13.780;2022-12-10T03:34:10;32.30;;;13.88;;
63276;SDS011;49403;51.046;13.780;2022-12-10T03:34:41;30.08;;;13.60;;